sensor_id;sensor_type;location;lat;lon;timestamp;P1;durP1;ratioP1;P2;durP2;ratioP2
32501;SDS011;18952;52.516;13.460;2023-04-28T00:01:10;20.27;;;8.43;;
32501;SDS011;18952;52.516;13.460;2023-04-28T00:03:37;17.63;;;8.10;;
32501;SDS011;18952;52.516;13.460;2023-04-28T00:06:05;16.88;;;8.63;;
32501;SDS011;18952;52.516;13.460;2023-04-28T00:08:32;16.23;;;8.52;;
32501;SDS011;18952;52.516;13.460;2023-04-28T00:11:00;18.45;;;8.85;;
32501;SDS011;18952;52.516;13.460;2023-04-28T00:13:28;16.98;;;9.10;;
32501;SDS011;18952;52.516;13.460;2023-04-28T00:15:57;15.55;;;8.25;;
32501;SDS011;18952;52.516;13.460;2023-04-28T00:18:26;17.35;;;8.80;;
32501;SDS011;18952;52.516;13.460;2023-04-28T00:20:56;16.90;;;8.88;;
32501;SDS011;18952;52.516;13.460;2023-04-28T00:23:33;18.60;;;9.15;;
32501;SDS011;18952;52.516;13.460;2023-04-28T00:26:05;17.40;;;8.95;;
32501;SDS011;18952;52.516;13.460;2023-04-28T00:28:31;17.25;;;8.80;;
32501;SDS011;18952;52.516;13.460;2023-04-28T00:31:00;15.90;;;8.85;;
32501;SDS011;18952;52.516;13.460;2023-04-28T00:33:27;15.40;;;8.45;;
32501;SDS011;18952;52.516;13.460;2023-04-28T00:36:00;13.77;;;8.98;;
32501;SDS011;18952;52.516;13.460;2023-04-28T00:38:27;23.50;;;8.82;;
32501;SDS011;18952;52.516;13.460;2023-04-28T00:40:54;15.93;;;8.90;;
32501;SDS011;18952;52.516;13.460;2023-04-28T00:43:21;16.27;;;9.07;;
32501;SDS011;18952;52.516;13.460;2023-04-28T00:45:48;16.60;;;8.75;;
32501;SDS011;18952;52.516;13.460;2023-04-28T00:48:15;17.17;;;8.57;;
32501;SDS011;18952;52.516;13.460;2023-04-28T00:50:43;20.15;;;8.80;;
32501;SDS011;18952;52.516;13.460;2023-04-28T00:53:10;14.05;;;8.20;;
32501;SDS011;18952;52.516;13.460;2023-04-28T00:55:38;13.63;;;8.32;;
32501;SDS011;18952;52.516;13.460;2023-04-28T00:58:05;18.13;;;8.68;;
32501;SDS011;18952;52.516;13.460;2023-04-28T01:00:32;16.85;;;8.27;;
32501;SDS011;18952;52.516;13.460;2023-04-28T01:02:59;15.07;;;8.77;;
32501;SDS011;18952;52.516;13.460;2023-04-28T01:05:27;17.05;;;8.02;;
32501;SDS011;18952;52.516;13.460;2023-04-28T01:07:54;16.77;;;9.07;;
32501;SDS011;18952;52.516;13.460;2023-04-28T01:10:21;16.27;;;8.48;;
32501;SDS011;18952;52.516;13.460;2023-04-28T01:12:49;14.73;;;7.85;;
32501;SDS011;18952;52.516;13.460;2023-04-28T01:15:16;16.45;;;7.93;;
32501;SDS011;18952;52.516;13.460;2023-04-28T01:17:46;12.77;;;7.10;;
32501;SDS011;18952;52.516;13.460;2023-04-28T01:20:18;10.80;;;7.00;;
32501;SDS011;18952;52.516;13.460;2023-04-28T01:22:46;15.25;;;7.78;;
32501;SDS011;18952;52.516;13.460;2023-04-28T01:25:13;11.85;;;6.78;;
32501;SDS011;18952;52.516;13.460;2023-04-28T01:27:39;11.93;;;7.47;;
32501;SDS011;18952;52.516;13.460;2023-04-28T01:30:06;10.75;;;7.38;;
32501;SDS011;18952;52.516;13.460;2023-04-28T01:32:33;13.80;;;7.32;;
32501;SDS011;18952;52.516;13.460;2023-04-28T01:35:00;16.65;;;7.45;;
32501;SDS011;18952;52.516;13.460;2023-04-28T01:37:27;11.70;;;7.28;;
32501;SDS011;18952;52.516;13.460;2023-04-28T01:39:54;17.33;;;7.07;;
32501;SDS011;18952;52.516;13.460;2023-04-28T01:42:20;17.58;;;7.28;;
32501;SDS011;18952;52.516;13.460;2023-04-28T01:44:48;12.45;;;7.57;;
32501;SDS011;18952;52.516;13.460;2023-04-28T01:47:16;13.93;;;7.22;;
32501;SDS011;18952;52.516;13.460;2023-04-28T01:49:45;11.82;;;7.00;;
32501;SDS011;18952;52.516;13.460;2023-04-28T01:52:13;12.02;;;6.80;;
32501;SDS011;18952;52.516;13.460;2023-04-28T01:54:40;12.88;;;7.28;;
32501;SDS011;18952;52.516;13.460;2023-04-28T01:57:08;12.13;;;6.90;;
32501;SDS011;18952;52.516;13.460;2023-04-28T01:59:35;13.82;;;6.50;;
32501;SDS011;18952;52.516;13.460;2023-04-28T02:02:03;11.48;;;6.32;;
32501;SDS011;18952;52.516;13.460;2023-04-28T02:04:29;12.75;;;6.65;;
32501;SDS011;18952;52.516;13.460;2023-04-28T02:06:56;13.88;;;6.40;;
32501;SDS011;18952;52.516;13.460;2023-04-28T02:09:28;13.80;;;7.00;;
32501;SDS011;18952;52.516;13.460;2023-04-28T02:11:56;10.52;;;6.78;;
32501;SDS011;18952;52.516;13.460;2023-04-28T02:14:23;13.95;;;6.88;;
32501;SDS011;18952;52.516;13.460;2023-04-28T02:16:50;10.57;;;6.72;;
32501;SDS011;18952;52.516;13.460;2023-04-28T02:19:17;13.10;;;6.97;;
32501;SDS011;18952;52.516;13.460;2023-04-28T02:21:43;11.73;;;6.03;;
32501;SDS011;18952;52.516;13.460;2023-04-28T02:24:10;11.40;;;5.93;;
32501;SDS011;18952;52.516;13.460;2023-04-28T02:26:37;11.45;;;6.40;;
32501;SDS011;18952;52.516;13.460;2023-04-28T02:29:03;9.95;;;6.50;;
32501;SDS011;18952;52.516;13.460;2023-04-28T02:31:30;11.30;;;6.55;;
32501;SDS011;18952;52.516;13.460;2023-04-28T02:33:58;13.77;;;6.30;;
32501;SDS011;18952;52.516;13.460;2023-04-28T02:36:25;9.05;;;6.50;;
32501;SDS011;18952;52.516;13.460;2023-04-28T02:38:55;10.55;;;6.43;;
32501;SDS011;18952;52.516;13.460;2023-04-28T02:41:25;13.13;;;6.32;;
32501;SDS011;18952;52.516;13.460;2023-04-28T02:43:53;13.38;;;6.45;;
32501;SDS011;18952;52.516;13.460;2023-04-28T02:46:19;12.55;;;6.13;;
32501;SDS011;18952;52.516;13.460;2023-04-28T02:48:46;14.82;;;6.25;;
32501;SDS011;18952;52.516;13.460;2023-04-28T02:51:13;11.07;;;6.40;;
32501;SDS011;18952;52.516;13.460;2023-04-28T02:53:40;12.32;;;5.93;;
32501;SDS011;18952;52.516;13.460;2023-04-28T02:56:06;12.60;;;6.43;;
32501;SDS011;18952;52.516;13.460;2023-04-28T02:58:33;16.45;;;5.93;;
32501;SDS011;18952;52.516;13.460;2023-04-28T03:01:00;13.45;;;5.90;;
32501;SDS011;18952;52.516;13.460;2023-04-28T03:03:27;9.13;;;5.53;;
32501;SDS011;18952;52.516;13.460;2023-04-28T03:05:54;12.23;;;5.65;;
32501;SDS011;18952;52.516;13.460;2023-04-28T03:08:20;11.57;;;5.80;;
32501;SDS011;18952;52.516;13.460;2023-04-28T03:10:48;10.77;;;6.10;;
32501;SDS011;18952;52.516;13.460;2023-04-28T03:13:15;14.25;;;6.43;;
32501;SDS011;18952;52.516;13.460;2023-04-28T03:15:43;13.73;;;6.63;;
32501;SDS011;18952;52.516;13.460;2023-04-28T03:18:10;12.75;;;5.78;;
32501;SDS011;18952;52.516;13.460;2023-04-28T03:20:37;12.02;;;6.18;;
32501;SDS011;18952;52.516;13.460;2023-04-28T03:23:04;16.92;;;5.70;;
32501;SDS011;18952;52.516;13.460;2023-04-28T03:25:33;10.93;;;6.10;;
32501;SDS011;18952;52.516;13.460;2023-04-28T03:28:00;11.60;;;5.60;;
32501;SDS011;18952;52.516;13.460;2023-04-28T03:30:27;9.68;;;5.60;;
32501;SDS011;18952;52.516;13.460;2023-04-28T03:32:53;13.00;;;5.90;;
32501;SDS011;18952;52.516;13.460;2023-04-28T03:35:20;10.60;;;5.60;;
32501;SDS011;18952;52.516;13.460;2023-04-28T03:37:47;13.65;;;5.63;;
32501;SDS011;18952;52.516;13.460;2023-04-28T03:40:14;11.77;;;5.82;;
32501;SDS011;18952;52.516;13.460;2023-04-28T03:42:42;10.93;;;5.63;;
32501;SDS011;18952;52.516;13.460;2023-04-28T03:45:09;11.45;;;5.63;;
32501;SDS011;18952;52.516;13.460;2023-04-28T03:47:37;10.15;;;5.45;;
32501;SDS011;18952;52.516;13.460;2023-04-28T03:50:04;12.65;;;5.97;;
32501;SDS011;18952;52.516;13.460;2023-04-28T03:52:31;14.75;;;5.90;;
32501;SDS011;18952;52.516;13.460;2023-04-28T03:54:59;9.40;;;6.05;;
32501;SDS011;18952;52.516;13.460;2023-04-28T03:57:26;11.95;;;5.72;;
32501;SDS011;18952;52.516;13.460;2023-04-28T03:59:53;16.40;;;5.55;;
32501;SDS011;18952;52.516;13.460;2023-04-28T04:02:19;23.13;;;6.63;;
32501;SDS011;18952;52.516;13.460;2023-04-28T04:04:46;13.32;;;6.05;;
32501;SDS011;18952;52.516;13.460;2023-04-28T04:07:13;14.25;;;5.50;;
32501;SDS011;18952;52.516;13.460;2023-04-28T04:09:40;9.88;;;5.35;;
32501;SDS011;18952;52.516;13.460;2023-04-28T04:12:06;9.50;;;5.38;;
32501;SDS011;18952;52.516;13.460;2023-04-28T04:14:33;13.98;;;6.50;;
32501;SDS011;18952;52.516;13.460;2023-04-28T04:17:00;13.55;;;6.00;;
32501;SDS011;18952;52.516;13.460;2023-04-28T04:19:27;14.60;;;6.43;;
32501;SDS011;18952;52.516;13.460;2023-04-28T04:21:53;12.23;;;5.65;;
32501;SDS011;18952;52.516;13.460;2023-04-28T04:24:23;15.98;;;5.95;;
32501;SDS011;18952;52.516;13.460;2023-04-28T04:26:51;16.60;;;6.63;;
32501;SDS011;18952;52.516;13.460;2023-04-28T04:29:18;14.45;;;7.05;;
32501;SDS011;18952;52.516;13.460;2023-04-28T04:31:44;10.98;;;6.30;;
32501;SDS011;18952;52.516;13.460;2023-04-28T04:34:11;18.65;;;6.20;;
32501;SDS011;18952;52.516;13.460;2023-04-28T04:36:38;14.10;;;6.10;;
32501;SDS011;18952;52.516;13.460;2023-04-28T04:39:06;14.68;;;5.93;;
32501;SDS011;18952;52.516;13.460;2023-04-28T04:41:33;12.05;;;6.43;;
32501;SDS011;18952;52.516;13.460;2023-04-28T04:43:59;9.20;;;5.25;;
32501;SDS011;18952;52.516;13.460;2023-04-28T04:46:26;13.40;;;5.72;;
32501;SDS011;18952;52.516;13.460;2023-04-28T04:48:53;13.35;;;6.22;;
32501;SDS011;18952;52.516;13.460;2023-04-28T04:51:20;9.82;;;5.55;;
32501;SDS011;18952;52.516;13.460;2023-04-28T04:53:46;13.40;;;5.57;;
32501;SDS011;18952;52.516;13.460;2023-04-28T04:56:15;16.92;;;6.25;;
32501;SDS011;18952;52.516;13.460;2023-04-28T04:58:42;15.15;;;5.93;;
32501;SDS011;18952;52.516;13.460;2023-04-28T05:01:11;13.02;;;5.80;;
32501;SDS011;18952;52.516;13.460;2023-04-28T05:03:37;12.60;;;5.63;;
32501;SDS011;18952;52.516;13.460;2023-04-28T05:06:04;20.08;;;5.70;;
32501;SDS011;18952;52.516;13.460;2023-04-28T05:08:31;10.35;;;5.57;;
32501;SDS011;18952;52.516;13.460;2023-04-28T05:10:58;13.82;;;6.13;;
32501;SDS011;18952;52.516;13.460;2023-04-28T05:13:24;13.65;;;5.57;;
32501;SDS011;18952;52.516;13.460;2023-04-28T05:15:51;14.27;;;6.45;;
32501;SDS011;18952;52.516;13.460;2023-04-28T05:18:18;18.40;;;6.50;;
32501;SDS011;18952;52.516;13.460;2023-04-28T05:20:46;20.60;;;6.00;;
32501;SDS011;18952;52.516;13.460;2023-04-28T05:23:12;11.93;;;5.47;;
32501;SDS011;18952;52.516;13.460;2023-04-28T05:25:39;16.92;;;5.47;;
32501;SDS011;18952;52.516;13.460;2023-04-28T05:28:10;14.95;;;5.90;;
32501;SDS011;18952;52.516;13.460;2023-04-28T05:30:38;13.73;;;5.85;;
32501;SDS011;18952;52.516;13.460;2023-04-28T05:33:06;10.98;;;5.63;;
32501;SDS011;18952;52.516;13.460;2023-04-28T05:35:34;16.60;;;5.97;;
32501;SDS011;18952;52.516;13.460;2023-04-28T05:38:01;12.70;;;5.70;;
32501;SDS011;18952;52.516;13.460;2023-04-28T05:40:38;14.93;;;6.10;;
32501;SDS011;18952;52.516;13.460;2023-04-28T05:43:08;12.23;;;6.20;;
32501;SDS011;18952;52.516;13.460;2023-04-28T05:45:35;12.35;;;5.95;;
32501;SDS011;18952;52.516;13.460;2023-04-28T05:48:02;13.25;;;6.28;;
32501;SDS011;18952;52.516;13.460;2023-04-28T05:50:28;13.80;;;5.80;;
32501;SDS011;18952;52.516;13.460;2023-04-28T05:52:55;20.80;;;6.60;;
32501;SDS011;18952;52.516;13.460;2023-04-28T05:55:22;16.20;;;6.70;;
32501;SDS011;18952;52.516;13.460;2023-04-28T05:57:49;12.02;;;6.55;;
32501;SDS011;18952;52.516;13.460;2023-04-28T06:00:19;11.93;;;7.00;;
32501;SDS011;18952;52.516;13.460;2023-04-28T06:02:46;14.43;;;7.05;;
32501;SDS011;18952;52.516;13.460;2023-04-28T06:05:13;15.80;;;8.35;;
32501;SDS011;18952;52.516;13.460;2023-04-28T06:07:40;14.55;;;7.35;;
32501;SDS011;18952;52.516;13.460;2023-04-28T06:10:06;14.77;;;7.80;;
32501;SDS011;18952;52.516;13.460;2023-04-28T06:12:34;11.82;;;7.25;;
32501;SDS011;18952;52.516;13.460;2023-04-28T06:15:01;17.13;;;7.38;;
32501;SDS011;18952;52.516;13.460;2023-04-28T06:17:27;18.55;;;8.05;;
32501;SDS011;18952;52.516;13.460;2023-04-28T06:19:54;13.75;;;7.95;;
32501;SDS011;18952;52.516;13.460;2023-04-28T06:22:22;14.60;;;7.90;;
32501;SDS011;18952;52.516;13.460;2023-04-28T06:24:49;13.18;;;7.75;;
32501;SDS011;18952;52.516;13.460;2023-04-28T06:27:16;14.13;;;7.22;;
32501;SDS011;18952;52.516;13.460;2023-04-28T06:29:47;19.58;;;7.28;;
32501;SDS011;18952;52.516;13.460;2023-04-28T06:32:17;12.95;;;6.15;;
32501;SDS011;18952;52.516;13.460;2023-04-28T06:34:49;13.98;;;6.60;;
32501;SDS011;18952;52.516;13.460;2023-04-28T06:37:16;11.13;;;5.93;;
32501;SDS011;18952;52.516;13.460;2023-04-28T06:39:44;18.25;;;7.20;;
32501;SDS011;18952;52.516;13.460;2023-04-28T06:42:13;13.90;;;5.90;;
32501;SDS011;18952;52.516;13.460;2023-04-28T06:44:39;13.23;;;5.97;;
32501;SDS011;18952;52.516;13.460;2023-04-28T06:47:09;11.85;;;5.60;;
32501;SDS011;18952;52.516;13.460;2023-04-28T06:49:36;12.35;;;6.22;;
32501;SDS011;18952;52.516;13.460;2023-04-28T06:52:03;18.17;;;5.72;;
32501;SDS011;18952;52.516;13.460;2023-04-28T06:54:29;15.40;;;5.93;;
32501;SDS011;18952;52.516;13.460;2023-04-28T06:56:56;14.98;;;5.75;;
32501;SDS011;18952;52.516;13.460;2023-04-28T06:59:23;10.07;;;4.90;;
32501;SDS011;18952;52.516;13.460;2023-04-28T07:01:50;11.23;;;5.40;;
32501;SDS011;18952;52.516;13.460;2023-04-28T07:04:16;10.50;;;4.95;;
32501;SDS011;18952;52.516;13.460;2023-04-28T07:06:46;17.40;;;5.38;;
32501;SDS011;18952;52.516;13.460;2023-04-28T07:09:13;16.10;;;5.35;;
32501;SDS011;18952;52.516;13.460;2023-04-28T07:11:41;12.13;;;5.15;;
32501;SDS011;18952;52.516;13.460;2023-04-28T07:14:10;11.82;;;4.90;;
32501;SDS011;18952;52.516;13.460;2023-04-28T07:16:37;10.25;;;4.25;;
32501;SDS011;18952;52.516;13.460;2023-04-28T07:19:05;11.05;;;4.53;;
32501;SDS011;18952;52.516;13.460;2023-04-28T07:21:45;11.10;;;4.47;;
32501;SDS011;18952;52.516;13.460;2023-04-28T07:24:13;10.00;;;4.90;;
32501;SDS011;18952;52.516;13.460;2023-04-28T07:26:44;8.68;;;4.15;;
32501;SDS011;18952;52.516;13.460;2023-04-28T07:29:11;11.50;;;4.30;;
32501;SDS011;18952;52.516;13.460;2023-04-28T07:31:40;14.02;;;4.68;;
32501;SDS011;18952;52.516;13.460;2023-04-28T07:34:07;14.90;;;4.75;;
32501;SDS011;18952;52.516;13.460;2023-04-28T07:36:34;11.35;;;4.57;;
32501;SDS011;18952;52.516;13.460;2023-04-28T07:39:01;12.07;;;4.97;;
32501;SDS011;18952;52.516;13.460;2023-04-28T07:44:30;11.30;;;4.95;;
32501;SDS011;18952;52.516;13.460;2023-04-28T07:47:01;16.88;;;5.30;;
32501;SDS011;18952;52.516;13.460;2023-04-28T07:49:38;14.00;;;4.90;;
32501;SDS011;18952;52.516;13.460;2023-04-28T07:52:05;12.63;;;4.93;;
32501;SDS011;18952;52.516;13.460;2023-04-28T07:54:35;11.70;;;5.22;;
32501;SDS011;18952;52.516;13.460;2023-04-28T07:57:02;10.45;;;4.90;;
32501;SDS011;18952;52.516;13.460;2023-04-28T07:59:29;10.63;;;4.45;;
32501;SDS011;18952;52.516;13.460;2023-04-28T08:01:56;13.60;;;5.00;;
32501;SDS011;18952;52.516;13.460;2023-04-28T08:04:23;15.40;;;5.35;;
32501;SDS011;18952;52.516;13.460;2023-04-28T08:06:51;12.48;;;5.35;;
32501;SDS011;18952;52.516;13.460;2023-04-28T08:09:20;12.88;;;5.38;;
32501;SDS011;18952;52.516;13.460;2023-04-28T08:11:47;10.73;;;5.00;;
32501;SDS011;18952;52.516;13.460;2023-04-28T08:14:15;12.65;;;5.32;;
32501;SDS011;18952;52.516;13.460;2023-04-28T08:16:43;8.77;;;4.82;;
32501;SDS011;18952;52.516;13.460;2023-04-28T08:19:11;11.50;;;5.10;;
32501;SDS011;18952;52.516;13.460;2023-04-28T08:21:39;15.00;;;5.35;;
32501;SDS011;18952;52.516;13.460;2023-04-28T08:24:06;11.90;;;4.93;;
32501;SDS011;18952;52.516;13.460;2023-04-28T08:26:34;18.75;;;6.20;;
32501;SDS011;18952;52.516;13.460;2023-04-28T08:29:06;11.98;;;4.95;;
32501;SDS011;18952;52.516;13.460;2023-04-28T08:31:35;13.65;;;5.13;;
32501;SDS011;18952;52.516;13.460;2023-04-28T08:34:05;13.52;;;4.60;;
32501;SDS011;18952;52.516;13.460;2023-04-28T08:36:35;12.18;;;5.50;;
32501;SDS011;18952;52.516;13.460;2023-04-28T08:39:04;11.32;;;4.82;;
32501;SDS011;18952;52.516;13.460;2023-04-28T08:41:31;10.65;;;4.90;;
32501;SDS011;18952;52.516;13.460;2023-04-28T08:43:58;11.10;;;5.35;;
32501;SDS011;18952;52.516;13.460;2023-04-28T08:46:26;13.98;;;5.80;;
32501;SDS011;18952;52.516;13.460;2023-04-28T08:48:55;10.60;;;5.50;;
32501;SDS011;18952;52.516;13.460;2023-04-28T08:51:32;12.70;;;5.13;;
32501;SDS011;18952;52.516;13.460;2023-04-28T08:54:01;10.32;;;4.95;;
32501;SDS011;18952;52.516;13.460;2023-04-28T08:56:48;14.18;;;5.53;;
32501;SDS011;18952;52.516;13.460;2023-04-28T08:59:18;9.98;;;5.43;;
32501;SDS011;18952;52.516;13.460;2023-04-28T09:01:49;10.93;;;5.18;;
32501;SDS011;18952;52.516;13.460;2023-04-28T09:04:19;12.00;;;5.47;;
32501;SDS011;18952;52.516;13.460;2023-04-28T09:06:48;17.40;;;5.53;;
32501;SDS011;18952;52.516;13.460;2023-04-28T09:11:53;12.38;;;4.93;;
32501;SDS011;18952;52.516;13.460;2023-04-28T09:14:21;10.13;;;5.22;;
32501;SDS011;18952;52.516;13.460;2023-04-28T09:16:48;14.32;;;5.40;;
32501;SDS011;18952;52.516;13.460;2023-04-28T09:19:16;12.13;;;5.47;;
32501;SDS011;18952;52.516;13.460;2023-04-28T09:21:50;10.30;;;5.45;;
32501;SDS011;18952;52.516;13.460;2023-04-28T09:24:32;11.68;;;5.32;;
32501;SDS011;18952;52.516;13.460;2023-04-28T09:27:02;17.63;;;6.30;;
32501;SDS011;18952;52.516;13.460;2023-04-28T09:29:30;16.48;;;6.22;;
32501;SDS011;18952;52.516;13.460;2023-04-28T09:34:44;10.43;;;5.40;;
32501;SDS011;18952;52.516;13.460;2023-04-28T09:37:19;11.10;;;5.30;;
32501;SDS011;18952;52.516;13.460;2023-04-28T09:39:48;13.13;;;5.72;;
32501;SDS011;18952;52.516;13.460;2023-04-28T09:42:39;14.30;;;6.05;;
32501;SDS011;18952;52.516;13.460;2023-04-28T09:45:13;14.20;;;6.50;;
32501;SDS011;18952;52.516;13.460;2023-04-28T09:47:43;11.35;;;6.25;;
32501;SDS011;18952;52.516;13.460;2023-04-28T09:50:13;12.73;;;6.30;;
32501;SDS011;18952;52.516;13.460;2023-04-28T09:52:43;16.17;;;6.00;;
32501;SDS011;18952;52.516;13.460;2023-04-28T09:55:11;14.10;;;6.13;;
32501;SDS011;18952;52.516;13.460;2023-04-28T09:57:38;16.98;;;6.97;;
32501;SDS011;18952;52.516;13.460;2023-04-28T10:00:05;15.93;;;6.30;;
32501;SDS011;18952;52.516;13.460;2023-04-28T10:02:34;14.93;;;6.00;;
32501;SDS011;18952;52.516;13.460;2023-04-28T10:05:05;17.10;;;6.55;;
32501;SDS011;18952;52.516;13.460;2023-04-28T10:07:33;12.70;;;6.07;;
32501;SDS011;18952;52.516;13.460;2023-04-28T10:10:03;11.15;;;5.57;;
32501;SDS011;18952;52.516;13.460;2023-04-28T10:12:32;13.90;;;5.45;;
32501;SDS011;18952;52.516;13.460;2023-04-28T10:14:58;11.77;;;5.40;;
32501;SDS011;18952;52.516;13.460;2023-04-28T10:17:26;10.55;;;5.25;;
32501;SDS011;18952;52.516;13.460;2023-04-28T10:19:53;10.07;;;5.50;;
32501;SDS011;18952;52.516;13.460;2023-04-28T10:22:50;12.38;;;5.50;;
32501;SDS011;18952;52.516;13.460;2023-04-28T10:25:31;15.75;;;6.20;;
32501;SDS011;18952;52.516;13.460;2023-04-28T10:28:00;13.95;;;5.85;;
32501;SDS011;18952;52.516;13.460;2023-04-28T10:30:31;13.63;;;7.88;;
32501;SDS011;18952;52.516;13.460;2023-04-28T10:38:04;13.38;;;5.50;;
32501;SDS011;18952;52.516;13.460;2023-04-28T10:40:41;11.13;;;5.97;;
32501;SDS011;18952;52.516;13.460;2023-04-28T10:43:09;11.10;;;5.63;;
32501;SDS011;18952;52.516;13.460;2023-04-28T10:48:52;11.32;;;5.95;;
32501;SDS011;18952;52.516;13.460;2023-04-28T10:56:26;13.88;;;5.93;;
32501;SDS011;18952;52.516;13.460;2023-04-28T10:58:57;13.85;;;5.65;;
32501;SDS011;18952;52.516;13.460;2023-04-28T11:01:30;15.60;;;5.43;;
32501;SDS011;18952;52.516;13.460;2023-04-28T11:04:08;17.38;;;6.28;;
32501;SDS011;18952;52.516;13.460;2023-04-28T11:06:40;12.07;;;5.40;;
32501;SDS011;18952;52.516;13.460;2023-04-28T11:11:38;14.35;;;5.78;;
32501;SDS011;18952;52.516;13.460;2023-04-28T11:14:30;15.33;;;5.37;;
32501;SDS011;18952;52.516;13.460;2023-04-28T11:17:02;11.85;;;5.10;;
32501;SDS011;18952;52.516;13.460;2023-04-28T11:19:34;12.85;;;5.72;;
32501;SDS011;18952;52.516;13.460;2023-04-28T11:22:04;9.07;;;5.38;;
32501;SDS011;18952;52.516;13.460;2023-04-28T11:24:57;12.85;;;5.25;;
32501;SDS011;18952;52.516;13.460;2023-04-28T11:27:28;10.88;;;4.80;;
32501;SDS011;18952;52.516;13.460;2023-04-28T11:29:56;10.63;;;5.97;;
32501;SDS011;18952;52.516;13.460;2023-04-28T11:32:32;11.98;;;5.60;;
32501;SDS011;18952;52.516;13.460;2023-04-28T11:35:00;17.27;;;6.28;;
32501;SDS011;18952;52.516;13.460;2023-04-28T11:37:27;12.98;;;6.10;;
32501;SDS011;18952;52.516;13.460;2023-04-28T11:39:54;11.90;;;6.00;;
32501;SDS011;18952;52.516;13.460;2023-04-28T11:42:20;13.48;;;6.07;;
32501;SDS011;18952;52.516;13.460;2023-04-28T11:44:51;15.75;;;6.18;;
32501;SDS011;18952;52.516;13.460;2023-04-28T11:47:28;11.90;;;5.57;;
32501;SDS011;18952;52.516;13.460;2023-04-28T11:49:56;10.45;;;6.05;;
32501;SDS011;18952;52.516;13.460;2023-04-28T11:52:22;11.95;;;5.75;;
32501;SDS011;18952;52.516;13.460;2023-04-28T11:54:53;10.80;;;5.53;;
32501;SDS011;18952;52.516;13.460;2023-04-28T11:57:20;17.05;;;5.80;;
32501;SDS011;18952;52.516;13.460;2023-04-28T11:59:49;11.80;;;5.70;;
32501;SDS011;18952;52.516;13.460;2023-04-28T12:02:23;10.50;;;5.57;;
32501;SDS011;18952;52.516;13.460;2023-04-28T12:04:51;15.68;;;6.35;;
32501;SDS011;18952;52.516;13.460;2023-04-28T12:07:18;12.07;;;6.32;;
32501;SDS011;18952;52.516;13.460;2023-04-28T12:12:36;9.23;;;5.57;;
32501;SDS011;18952;52.516;13.460;2023-04-28T12:15:06;16.00;;;6.78;;
32501;SDS011;18952;52.516;13.460;2023-04-28T12:20:06;12.32;;;6.50;;
32501;SDS011;18952;52.516;13.460;2023-04-28T12:22:48;14.95;;;5.97;;
32501;SDS011;18952;52.516;13.460;2023-04-28T12:25:17;9.95;;;6.30;;
32501;SDS011;18952;52.516;13.460;2023-04-28T12:30:34;15.32;;;6.68;;
32501;SDS011;18952;52.516;13.460;2023-04-28T12:33:02;14.00;;;6.20;;
32501;SDS011;18952;52.516;13.460;2023-04-28T12:35:29;13.27;;;6.72;;
32501;SDS011;18952;52.516;13.460;2023-04-28T12:37:56;14.48;;;6.57;;
32501;SDS011;18952;52.516;13.460;2023-04-28T12:40:23;11.20;;;5.80;;
32501;SDS011;18952;52.516;13.460;2023-04-28T12:42:51;10.38;;;6.20;;
32501;SDS011;18952;52.516;13.460;2023-04-28T12:45:18;15.70;;;6.43;;
32501;SDS011;18952;52.516;13.460;2023-04-28T12:47:49;13.30;;;6.57;;
32501;SDS011;18952;52.516;13.460;2023-04-28T12:50:16;13.13;;;6.07;;
32501;SDS011;18952;52.516;13.460;2023-04-28T12:52:43;18.67;;;6.45;;
32501;SDS011;18952;52.516;13.460;2023-04-28T12:55:09;13.63;;;6.40;;
32501;SDS011;18952;52.516;13.460;2023-04-28T12:57:36;13.35;;;6.28;;
32501;SDS011;18952;52.516;13.460;2023-04-28T13:00:05;12.77;;;6.10;;
32501;SDS011;18952;52.516;13.460;2023-04-28T13:02:33;14.60;;;6.38;;
32501;SDS011;18952;52.516;13.460;2023-04-28T13:05:01;16.63;;;7.30;;
32501;SDS011;18952;52.516;13.460;2023-04-28T13:07:28;14.60;;;7.20;;
32501;SDS011;18952;52.516;13.460;2023-04-28T13:09:55;12.52;;;6.80;;
32501;SDS011;18952;52.516;13.460;2023-04-28T13:12:22;13.90;;;6.13;;
32501;SDS011;18952;52.516;13.460;2023-04-28T13:14:49;15.85;;;6.18;;
32501;SDS011;18952;52.516;13.460;2023-04-28T13:17:17;14.45;;;5.95;;
32501;SDS011;18952;52.516;13.460;2023-04-28T13:19:44;11.27;;;6.18;;
32501;SDS011;18952;52.516;13.460;2023-04-28T13:22:13;15.27;;;6.20;;
32501;SDS011;18952;52.516;13.460;2023-04-28T13:24:41;14.15;;;6.00;;
32501;SDS011;18952;52.516;13.460;2023-04-28T13:27:21;13.45;;;5.78;;
32501;SDS011;18952;52.516;13.460;2023-04-28T13:29:50;11.93;;;6.25;;
32501;SDS011;18952;52.516;13.460;2023-04-28T13:32:18;12.68;;;6.95;;
32501;SDS011;18952;52.516;13.460;2023-04-28T13:34:45;17.90;;;5.85;;
32501;SDS011;18952;52.516;13.460;2023-04-28T13:37:12;13.95;;;5.88;;
32501;SDS011;18952;52.516;13.460;2023-04-28T13:39:39;15.20;;;5.72;;
32501;SDS011;18952;52.516;13.460;2023-04-28T13:42:05;14.20;;;6.20;;
32501;SDS011;18952;52.516;13.460;2023-04-28T13:44:32;14.77;;;6.68;;
32501;SDS011;18952;52.516;13.460;2023-04-28T13:46:59;12.75;;;6.30;;
32501;SDS011;18952;52.516;13.460;2023-04-28T13:49:26;13.45;;;6.60;;
32501;SDS011;18952;52.516;13.460;2023-04-28T13:51:52;16.88;;;6.75;;
32501;SDS011;18952;52.516;13.460;2023-04-28T13:54:19;13.05;;;6.30;;
32501;SDS011;18952;52.516;13.460;2023-04-28T13:56:46;15.25;;;7.35;;
32501;SDS011;18952;52.516;13.460;2023-04-28T13:59:13;14.43;;;7.00;;
32501;SDS011;18952;52.516;13.460;2023-04-28T14:01:39;15.43;;;6.90;;
32501;SDS011;18952;52.516;13.460;2023-04-28T14:04:06;13.27;;;6.97;;
32501;SDS011;18952;52.516;13.460;2023-04-28T14:06:33;24.92;;;7.88;;
32501;SDS011;18952;52.516;13.460;2023-04-28T14:09:00;17.90;;;6.90;;
32501;SDS011;18952;52.516;13.460;2023-04-28T14:11:27;14.82;;;6.88;;
32501;SDS011;18952;52.516;13.460;2023-04-28T14:13:53;15.90;;;6.95;;
32501;SDS011;18952;52.516;13.460;2023-04-28T14:16:23;16.45;;;7.70;;
32501;SDS011;18952;52.516;13.460;2023-04-28T14:18:50;14.18;;;7.03;;
32501;SDS011;18952;52.516;13.460;2023-04-28T14:21:18;13.23;;;6.80;;
32501;SDS011;18952;52.516;13.460;2023-04-28T14:23:44;12.13;;;6.53;;
32501;SDS011;18952;52.516;13.460;2023-04-28T14:26:11;12.43;;;6.47;;
32501;SDS011;18952;52.516;13.460;2023-04-28T14:28:39;13.88;;;6.47;;
32501;SDS011;18952;52.516;13.460;2023-04-28T14:31:06;12.57;;;6.65;;
32501;SDS011;18952;52.516;13.460;2023-04-28T14:33:34;13.82;;;7.03;;
32501;SDS011;18952;52.516;13.460;2023-04-28T14:36:01;16.20;;;7.43;;
32501;SDS011;18952;52.516;13.460;2023-04-28T14:38:28;17.30;;;7.22;;
32501;SDS011;18952;52.516;13.460;2023-04-28T14:40:55;14.63;;;7.25;;
32501;SDS011;18952;52.516;13.460;2023-04-28T14:43:22;13.20;;;6.90;;
32501;SDS011;18952;52.516;13.460;2023-04-28T14:45:49;16.55;;;7.93;;
32501;SDS011;18952;52.516;13.460;2023-04-28T14:48:16;11.73;;;6.07;;
32501;SDS011;18952;52.516;13.460;2023-04-28T14:50:43;14.38;;;7.07;;
32501;SDS011;18952;52.516;13.460;2023-04-28T14:53:09;14.52;;;7.53;;
32501;SDS011;18952;52.516;13.460;2023-04-28T14:55:36;13.40;;;6.82;;
32501;SDS011;18952;52.516;13.460;2023-04-28T14:58:03;15.10;;;6.70;;
32501;SDS011;18952;52.516;13.460;2023-04-28T15:00:29;14.55;;;6.70;;